createdAt,value
2018-08-31T00:00:11.191Z,73.91
2018-08-31T00:00:51.715Z,74.2
2018-08-31T00:01:32.625Z,73.43
2018-08-31T00:02:13.141Z,73.91
2018-08-31T00:02:53.737Z,74.01
2018-08-31T00:03:34.192Z,73.43
2018-08-31T00:04:14.747Z,73.53
2018-08-31T00:04:55.246Z,73.43
2018-08-31T00:05:35.766Z,73.53
2018-08-31T00:06:16.307Z,73.62
2018-08-31T00:06:56.795Z,73.53
2018-08-31T00:07:37.285Z,73.24
2018-08-31T00:08:17.798Z,73.72
2018-08-31T00:08:58.342Z,74.3
2018-08-31T00:09:38.836Z,74.2
2018-08-31T00:10:19.352Z,73.43
2018-08-31T00:10:59.844Z,73.91
2018-08-31T00:11:40.365Z,73.24
2018-08-31T00:12:20.864Z,73.62
2018-08-31T00:13:01.366Z,73.53
2018-08-31T00:13:41.868Z,72.95
2018-08-31T00:14:22.392Z,72.89
2018-08-31T00:15:02.997Z,72.79
2018-08-31T00:15:43.420Z,72.69
2018-08-31T00:16:23.931Z,72.75
2018-08-31T00:17:04.453Z,72.75
2018-08-31T00:17:44.960Z,73.14
2018-08-31T00:18:25.464Z,73.24
2018-08-31T00:19:05.970Z,73.37
2018-08-31T00:19:46.461Z,73.08
2018-08-31T00:20:26.996Z,73.47
2018-08-31T00:21:07.516Z,72.89
2018-08-31T00:21:48.777Z,72.89
2018-08-31T00:22:29.259Z,72.79
2018-08-31T00:23:09.779Z,72.31
2018-08-31T00:23:50.294Z,71.73
2018-08-31T00:24:30.805Z,72.21
2018-08-31T00:25:11.318Z,71.83
2018-08-31T00:25:51.891Z,72.21
2018-08-31T00:26:32.323Z,72.31
2018-08-31T00:27:12.815Z,72.12
2018-08-31T00:27:53.322Z,71.92
2018-08-31T00:28:33.847Z,71.79
2018-08-31T00:29:14.363Z,71.54
2018-08-31T00:29:54.911Z,71.54
2018-08-31T00:30:35.380Z,71.64
2018-08-31T00:31:15.904Z,71.83
2018-08-31T00:31:56.449Z,71.73
2018-08-31T00:32:36.930Z,71.06
2018-08-31T00:33:17.451Z,71.25
2018-08-31T00:33:58.051Z,71.54
2018-08-31T00:34:38.496Z,71.44
2018-08-31T00:35:19.013Z,71.15
2018-08-31T00:35:59.457Z,71.44
2018-08-31T00:36:39.959Z,71.15
2018-08-31T00:37:20.429Z,70.86
2018-08-31T00:38:00.907Z,71.25
2018-08-31T00:38:41.370Z,70.57
2018-08-31T00:39:21.854Z,70.38
2018-08-31T00:40:02.363Z,70.76
2018-08-31T00:40:42.861Z,70.86
2018-08-31T00:41:23.463Z,70.67
2018-08-31T00:42:03.967Z,70.48
2018-08-31T00:42:44.440Z,69.8
2018-08-31T00:43:24.937Z,69.23
2018-08-31T00:44:05.848Z,68.45
2018-08-31T00:44:46.008Z,68.93
2018-08-31T00:45:26.509Z,68.84
2018-08-31T00:46:06.980Z,69.03
2018-08-31T00:46:47.481Z,68.93
2018-08-31T00:47:27.988Z,68.74
2018-08-31T00:48:08.479Z,68.74
2018-08-31T00:48:48.947Z,68.35
2018-08-31T00:49:29.413Z,68.84
2018-08-31T00:50:09.904Z,68.74
2018-08-31T00:50:50.382Z,68.45
2018-08-31T00:51:30.869Z,68.45
2018-08-31T00:52:11.507Z,68.13
2018-08-31T00:52:51.997Z,68.04
2018-08-31T00:53:32.486Z,68.13
2018-08-31T00:54:13.006Z,68.23
2018-08-31T00:54:53.479Z,68.23
2018-08-31T00:55:33.968Z,68.23
2018-08-31T00:56:14.445Z,68.32
2018-08-31T00:56:54.953Z,68.61
2018-08-31T00:57:35.492Z,68.61
2018-08-31T00:58:15.965Z,68.61
2018-08-31T00:58:56.413Z,68.52
2018-08-31T00:59:37.176Z,68.61
2018-08-31T01:00:17.648Z,68.8
2018-08-31T01:00:58.121Z,68.99
2018-08-31T01:01:38.640Z,69.29
2018-08-31T01:02:19.160Z,69.09
2018-08-31T01:02:59.648Z,68.71
2018-08-31T01:03:40.133Z,68.99
2018-08-31T01:04:20.642Z,68.52
2018-08-31T01:05:01.102Z,68.42
2018-08-31T01:05:41.604Z,69.09
2018-08-31T01:06:22.090Z,68.71
2018-08-31T01:07:02.675Z,68.8
2018-08-31T01:07:43.166Z,68.52
2018-08-31T01:08:23.687Z,68.52
2018-08-31T01:09:04.152Z,68.52
2018-08-31T01:09:44.642Z,68.9
2018-08-31T01:10:25.153Z,68.9
2018-08-31T01:11:05.644Z,68.71
2018-08-31T01:11:46.164Z,68.8
2018-08-31T01:12:26.641Z,68.71
2018-08-31T01:13:07.081Z,68.71
2018-08-31T01:13:47.696Z,68.52
2018-08-31T01:14:28.244Z,68.71
2018-08-31T01:15:08.773Z,68.52
2018-08-31T01:15:49.295Z,68.8
2018-08-31T01:16:29.695Z,68.9
2018-08-31T01:17:10.217Z,68.04
2018-08-31T01:17:50.706Z,68.23
2018-08-31T01:18:31.175Z,67.94
2018-08-31T01:19:11.656Z,67.94
2018-08-31T01:19:52.165Z,68.23
2018-08-31T01:20:32.695Z,68.42
2018-08-31T01:21:13.147Z,68.23
2018-08-31T01:21:53.637Z,68.23
2018-08-31T01:22:34.383Z,68.23
2018-08-31T01:23:14.840Z,67.55
2018-08-31T01:23:55.465Z,67.16
2018-08-31T01:24:35.925Z,67.65
2018-08-31T01:25:16.388Z,67.84
2018-08-31T01:25:56.889Z,67.4
2018-08-31T01:26:37.372Z,67.1
2018-08-31T01:27:17.923Z,67.07
2018-08-31T01:27:58.326Z,66.78
2018-08-31T01:28:38.836Z,66.78
2018-08-31T01:29:19.323Z,67.16
2018-08-31T01:29:59.767Z,66.97
2018-08-31T01:30:40.252Z,67.2
2018-08-31T01:31:20.729Z,67.1
2018-08-31T01:32:01.231Z,67.88
2018-08-31T01:32:41.667Z,68.26
2018-08-31T01:33:22.235Z,68.26
2018-08-31T01:34:02.719Z,68.61
2018-08-31T01:34:43.200Z,68.13
2018-08-31T01:35:23.722Z,68.45
2018-08-31T01:36:04.181Z,68.26
2018-08-31T01:36:44.656Z,68.16
2018-08-31T01:37:25.186Z,68.45
2018-08-31T01:38:05.627Z,68.65
2018-08-31T01:38:46.150Z,69.03
2018-08-31T01:39:26.682Z,68.52
2018-08-31T01:40:07.166Z,68.61
2018-08-31T01:40:47.644Z,68.84
2018-08-31T01:41:28.147Z,68.35
2018-08-31T01:42:08.656Z,68.13
2018-08-31T01:42:49.116Z,67.94
2018-08-31T01:43:29.615Z,67.65
2018-08-31T01:44:10.098Z,68.04
2018-08-31T01:44:50.557Z,67.16
2018-08-31T01:45:31.219Z,67.46
2018-08-31T01:46:11.718Z,67.94
2018-08-31T01:46:52.224Z,68.23
2018-08-31T01:47:32.671Z,68.04
2018-08-31T01:48:13.154Z,67.94
2018-08-31T01:48:53.663Z,67.2
2018-08-31T01:49:34.149Z,67.16
2018-08-31T01:50:14.625Z,66.88
2018-08-31T01:50:55.116Z,66.97
2018-08-31T01:51:35.629Z,67.36
2018-08-31T01:52:16.111Z,67.94
2018-08-31T01:52:56.614Z,67.94
2018-08-31T01:53:37.117Z,67.74
2018-08-31T01:54:17.580Z,67.84
2018-08-31T01:54:58.122Z,67.74
2018-08-31T01:55:38.979Z,67.74
2018-08-31T01:56:19.435Z,67.2
2018-08-31T01:56:59.911Z,66.82
2018-08-31T01:57:40.410Z,66.97
2018-08-31T01:58:20.878Z,66.72
2018-08-31T01:59:01.388Z,66.88
2018-08-31T01:59:42.795Z,66.97
2018-08-31T02:00:23.279Z,66.01
2018-08-31T02:01:03.808Z,65.14
2018-08-31T02:01:44.250Z,65.53
2018-08-31T02:02:24.777Z,64.95
2018-08-31T02:03:05.260Z,64.66
2018-08-31T02:03:45.752Z,64.56
2018-08-31T02:04:26.252Z,64.47
2018-08-31T02:05:06.790Z,64.47
2018-08-31T02:05:47.830Z,64.37
2018-08-31T02:06:28.380Z,64.47
2018-08-31T02:07:08.853Z,65.05
2018-08-31T02:07:49.388Z,64.76
2018-08-31T02:08:29.877Z,64.37
2018-08-31T02:09:10.365Z,64.47
2018-08-31T02:09:50.889Z,64.47
2018-08-31T02:10:31.354Z,64.86
2018-08-31T02:11:11.846Z,64.43
2018-08-31T02:11:52.362Z,64.66
2018-08-31T02:12:33.003Z,64.56
2018-08-31T02:13:13.508Z,64.47
2018-08-31T02:13:54.034Z,64.92
2018-08-31T02:14:34.526Z,64.86
2018-08-31T02:15:14.967Z,64.56
2018-08-31T02:15:55.512Z,65.24
2018-08-31T02:16:35.961Z,64.56
2018-08-31T02:17:16.466Z,64.56
2018-08-31T02:17:56.900Z,65.43
2018-08-31T02:18:37.357Z,65.53
2018-08-31T02:19:17.877Z,65.53
2018-08-31T02:19:58.353Z,65.2
2018-08-31T02:20:38.799Z,65.69
2018-08-31T02:21:19.296Z,65.05
2018-08-31T02:21:59.845Z,65.24
2018-08-31T02:22:40.345Z,65.11
2018-08-31T02:23:20.843Z,65.81
2018-08-31T02:24:01.326Z,65.33
2018-08-31T02:24:41.839Z,65.33
2018-08-31T02:25:22.349Z,65.24
2018-08-31T02:26:02.845Z,65.3
2018-08-31T02:26:43.356Z,65.05
2018-08-31T02:27:23.812Z,65.24
2018-08-31T02:28:04.340Z,65.05
2018-08-31T02:28:44.991Z,64.63
2018-08-31T02:29:25.452Z,64.63
2018-08-31T02:30:05.966Z,64.66
2018-08-31T02:30:46.420Z,64.56
2018-08-31T02:31:26.944Z,64.92
2018-08-31T02:32:07.433Z,65.05
2018-08-31T02:32:47.946Z,65.43
2018-08-31T02:33:28.384Z,65.11
2018-08-31T02:34:08.892Z,65.3
2018-08-31T02:34:49.396Z,65.14
2018-08-31T02:35:29.842Z,65.3
2018-08-31T02:36:10.381Z,65.24
2018-08-31T02:36:50.877Z,65.4
2018-08-31T02:37:31.401Z,65.72
2018-08-31T02:38:11.849Z,65.78
2018-08-31T02:38:52.342Z,65.14
2018-08-31T02:39:32.870Z,65.88
2018-08-31T02:40:13.377Z,65.81
2018-08-31T02:40:53.928Z,65.78
2018-08-31T02:41:35.413Z,65.72
2018-08-31T02:42:15.906Z,65.53
2018-08-31T02:42:56.697Z,65.63
2018-08-31T02:43:37.432Z,65.88
2018-08-31T02:44:17.925Z,65.5
2018-08-31T02:44:58.426Z,65.59
2018-08-31T02:45:38.921Z,65.5
2018-08-31T02:46:19.405Z,65.88
2018-08-31T02:46:59.879Z,65.69
2018-08-31T02:47:40.361Z,65.69
2018-08-31T02:48:20.964Z,65.78
2018-08-31T02:49:01.437Z,65.59
2018-08-31T02:49:41.949Z,65.59
2018-08-31T02:50:22.477Z,65.53
2018-08-31T02:51:03.165Z,65.3
2018-08-31T02:51:43.685Z,65.81
2018-08-31T02:52:24.173Z,65.63
2018-08-31T02:53:04.736Z,65.88
2018-08-31T02:53:45.297Z,65.78
2018-08-31T02:54:25.764Z,65.72
2018-08-31T02:55:06.247Z,65.3
2018-08-31T02:55:47.373Z,65.4
2018-08-31T02:56:27.868Z,65.98
2018-08-31T02:57:08.381Z,65.78
2018-08-31T02:57:48.857Z,65.88
2018-08-31T02:58:29.405Z,65.5
2018-08-31T02:59:09.874Z,65.88
2018-08-31T02:59:50.333Z,65.3
2018-08-31T03:00:30.824Z,65.88
2018-08-31T03:01:11.323Z,65.78
2018-08-31T03:01:51.846Z,66.17
2018-08-31T03:02:32.304Z,65.88
2018-08-31T03:03:12.768Z,65.59
2018-08-31T03:03:53.314Z,65.69
2018-08-31T03:04:33.740Z,66.17
2018-08-31T03:05:14.229Z,66.65
2018-08-31T03:05:54.730Z,66.27
2018-08-31T03:06:35.278Z,66.36
2018-08-31T03:07:15.768Z,66.46
2018-08-31T03:07:56.232Z,66.27
2018-08-31T03:08:36.727Z,66.36
2018-08-31T03:09:17.326Z,66.65
2018-08-31T03:09:57.813Z,66.04
2018-08-31T03:10:38.350Z,66.81
2018-08-31T03:11:18.824Z,66.85
2018-08-31T03:11:59.326Z,66.75
2018-08-31T03:12:39.832Z,66.62
2018-08-31T03:13:20.322Z,66.71
2018-08-31T03:14:00.820Z,66.94
2018-08-31T03:14:41.271Z,66.55
2018-08-31T03:15:21.763Z,66.81
2018-08-31T03:16:02.297Z,66.71
2018-08-31T03:16:42.724Z,67.29
2018-08-31T03:17:23.193Z,67.19
2018-08-31T03:18:03.661Z,67
2018-08-31T03:18:44.156Z,67.87
2018-08-31T03:19:24.664Z,67.97
2018-08-31T03:20:05.178Z,67.97
2018-08-31T03:20:45.726Z,67.87
2018-08-31T03:21:26.345Z,67.58
2018-08-31T03:22:06.682Z,67.97
2018-08-31T03:22:47.156Z,67.97
2018-08-31T03:23:27.639Z,67.19
2018-08-31T03:24:08.160Z,67.29
2018-08-31T03:24:48.706Z,67.87
2018-08-31T03:25:29.220Z,67.58
2018-08-31T03:26:09.648Z,67
2018-08-31T03:26:50.175Z,67.97
2018-08-31T03:27:30.649Z,67.87
2018-08-31T03:28:11.147Z,67.87
2018-08-31T03:28:51.707Z,68.54
2018-08-31T03:29:32.240Z,68.06
2018-08-31T03:30:12.710Z,68.16
2018-08-31T03:30:53.183Z,68.16
2018-08-31T03:31:33.670Z,68.26
2018-08-31T03:32:14.200Z,68.06
2018-08-31T03:32:54.697Z,68.26
2018-08-31T03:33:35.183Z,68.26
2018-08-31T03:34:15.696Z,67.97
2018-08-31T03:34:56.180Z,67.97
2018-08-31T03:35:36.708Z,68.06
2018-08-31T03:36:17.148Z,68.26
2018-08-31T03:36:57.668Z,68.26
2018-08-31T03:37:38.173Z,68.16
2018-08-31T03:38:18.630Z,67.87
2018-08-31T03:38:59.067Z,68.16
2018-08-31T03:39:39.591Z,68.06
2018-08-31T03:40:20.058Z,67.87
2018-08-31T03:41:00.552Z,68.06
2018-08-31T03:41:41.111Z,67.87
2018-08-31T03:42:21.586Z,68.06
2018-08-31T03:43:02.118Z,68.16
2018-08-31T03:43:43.072Z,67.97
2018-08-31T03:44:23.581Z,67.68
2018-08-31T03:45:04.088Z,67.97
2018-08-31T03:45:44.604Z,67.68
2018-08-31T03:46:25.058Z,67.49
2018-08-31T03:47:05.570Z,67.68
2018-08-31T03:47:46.767Z,67.83
2018-08-31T03:48:27.267Z,67.83
2018-08-31T03:49:07.775Z,68.22
2018-08-31T03:51:26.143Z,67.83
2018-08-31T03:52:06.699Z,67.93
2018-08-31T03:52:47.224Z,68.22
2018-08-31T03:53:27.723Z,68.03
2018-08-31T03:54:08.254Z,68.13
2018-08-31T03:54:48.753Z,68.22
2018-08-31T03:55:29.254Z,68.22
2018-08-31T03:56:09.795Z,68.41
2018-08-31T03:56:50.278Z,68.22
2018-08-31T03:57:30.783Z,68.13
2018-08-31T03:58:11.305Z,67.93
2018-08-31T03:58:51.777Z,68.13
2018-08-31T03:59:32.285Z,68.13
2018-08-31T04:00:12.802Z,68.13
2018-08-31T04:00:53.254Z,68.22
2018-08-31T04:01:33.764Z,68.13
2018-08-31T04:02:14.290Z,67.93
2018-08-31T04:02:54.776Z,67.07
2018-08-31T04:03:35.267Z,66.68
2018-08-31T04:04:15.801Z,66.68
2018-08-31T04:04:56.317Z,67.16
2018-08-31T04:05:36.809Z,67.26
2018-08-31T04:06:17.316Z,66.78
2018-08-31T04:06:57.906Z,66.68
2018-08-31T04:07:38.369Z,67.16
2018-08-31T04:08:18.893Z,66.78
2018-08-31T04:08:59.387Z,67.07
2018-08-31T04:09:39.916Z,66.58
2018-08-31T04:10:20.414Z,66.49
2018-08-31T04:11:00.945Z,66.49
2018-08-31T04:11:41.476Z,66.68
2018-08-31T04:12:21.996Z,67.07
2018-08-31T04:13:02.553Z,66.68
2018-08-31T04:13:43.081Z,66.97
2018-08-31T04:14:23.611Z,66.78
2018-08-31T04:15:04.240Z,67.07
2018-08-31T04:15:44.670Z,67.07
2018-08-31T04:16:25.176Z,67.07
2018-08-31T04:18:23.936Z,66.97
2018-08-31T04:19:03.834Z,67.26
2018-08-31T04:19:44.354Z,67.26
2018-08-31T04:20:24.874Z,67.51
2018-08-31T04:21:05.423Z,67.42
2018-08-31T04:21:45.920Z,67.9
2018-08-31T04:22:26.442Z,67.74
2018-08-31T04:23:06.971Z,67.74
2018-08-31T04:23:47.481Z,68.03
2018-08-31T04:24:27.996Z,67.93
2018-08-31T04:25:08.631Z,67.83
2018-08-31T04:25:49.141Z,67.74
2018-08-31T04:26:29.672Z,68.03
2018-08-31T04:27:10.174Z,68.48
2018-08-31T04:27:50.691Z,68.19
2018-08-31T04:28:31.229Z,68.51
2018-08-31T04:29:11.745Z,68.51
2018-08-31T04:29:52.276Z,68.13
2018-08-31T04:30:32.794Z,68.19
2018-08-31T04:31:13.309Z,68.19
2018-08-31T04:31:53.826Z,68.09
2018-08-31T04:32:34.332Z,68.57
2018-08-31T04:33:14.838Z,69.06
2018-08-31T04:33:55.681Z,68.67
2018-08-31T04:34:36.105Z,68.48
2018-08-31T04:35:16.600Z,68.38
2018-08-31T04:35:57.108Z,68.38
2018-08-31T04:36:37.609Z,68.57
2018-08-31T04:37:18.118Z,68.57
2018-08-31T04:37:58.634Z,68.96
2018-08-31T04:38:39.137Z,68.57
2018-08-31T04:40:52.372Z,68.76
2018-08-31T04:41:32.886Z,68.67
2018-08-31T04:42:13.381Z,68.86
2018-08-31T04:42:53.920Z,68.29
2018-08-31T04:43:34.403Z,68.96
2018-08-31T04:44:14.981Z,68.86
2018-08-31T04:44:55.471Z,68.96
2018-08-31T04:45:35.964Z,68.76
2018-08-31T04:46:16.475Z,68.76
2018-08-31T04:46:56.979Z,68.38
2018-08-31T04:47:38.287Z,68.38
2018-08-31T04:48:18.735Z,68.48
2018-08-31T04:48:59.290Z,68.86
2018-08-31T04:49:39.773Z,69.09
2018-08-31T04:50:20.315Z,68.22
2018-08-31T04:51:00.775Z,68.38
2018-08-31T04:51:41.281Z,68.57
2018-08-31T04:52:21.819Z,68.76
2018-08-31T04:53:02.399Z,68.9
2018-08-31T04:53:42.945Z,68.67
2018-08-31T04:54:23.502Z,68.38
2018-08-31T04:55:04.013Z,68.57
2018-08-31T04:55:44.472Z,68.96
2018-08-31T04:56:24.917Z,69.15
2018-08-31T04:57:05.428Z,69.28
2018-08-31T04:57:45.943Z,68.8
2018-08-31T04:58:27.312Z,68.57
2018-08-31T04:59:07.529Z,68.57
2018-08-31T04:59:48.035Z,69.15
2018-08-31T05:00:28.511Z,68.86
2018-08-31T05:01:09.001Z,68.57
2018-08-31T05:01:49.496Z,68.29
2018-08-31T05:02:30.064Z,68.57
2018-08-31T05:03:10.583Z,68.86
2018-08-31T05:03:51.082Z,68.67
2018-08-31T05:04:31.643Z,68.48
2018-08-31T05:05:12.519Z,69.15
2018-08-31T05:05:53.224Z,68.67
2018-08-31T05:06:33.720Z,68.38
2018-08-31T05:07:14.269Z,68.38
2018-08-31T05:07:54.764Z,68.76
2018-08-31T05:08:35.265Z,69.06
2018-08-31T05:09:15.840Z,68.96
2018-08-31T05:09:56.316Z,69.06
2018-08-31T05:10:36.790Z,68.48
2018-08-31T05:11:17.307Z,69.06
2018-08-31T05:11:57.802Z,69.15
2018-08-31T05:12:38.333Z,69.18
2018-08-31T05:13:18.860Z,68.8
2018-08-31T05:13:59.389Z,68.6
2018-08-31T05:14:39.912Z,68.51
2018-08-31T05:15:20.432Z,68.8
2018-08-31T05:16:00.963Z,68.38
2018-08-31T05:16:41.466Z,68.86
2018-08-31T05:17:21.986Z,68.57
2018-08-31T05:18:02.508Z,68.51
2018-08-31T05:18:43.023Z,68.96
2018-08-31T05:19:23.541Z,69.24
2018-08-31T05:20:04.040Z,69.53
2018-08-31T05:20:44.563Z,69.15
2018-08-31T05:21:25.078Z,69.53
2018-08-31T05:22:05.608Z,69.44
2018-08-31T05:22:46.232Z,69.63
2018-08-31T05:23:26.658Z,69.82
2018-08-31T05:24:07.177Z,71.36
2018-08-31T05:24:47.711Z,82.14
2018-08-31T05:25:28.260Z,85.6
2018-08-31T05:26:08.772Z,82.23
2018-08-31T05:28:22.305Z,87.42
2018-08-31T05:29:02.743Z,88.87
2018-08-31T05:29:43.643Z,89.35
2018-08-31T05:30:24.143Z,88.96
2018-08-31T05:31:04.655Z,84.73
2018-08-31T05:31:45.305Z,79
2018-08-31T05:32:25.819Z,77.46
2018-08-31T05:33:06.326Z,79.96
2018-08-31T05:33:46.843Z,86.51
2018-08-31T05:34:27.346Z,81.7
2018-08-31T05:35:07.846Z,80.54
2018-08-31T05:35:48.498Z,77.84
2018-08-31T05:36:29.023Z,78.13
2018-08-31T05:37:09.649Z,77.46
2018-08-31T05:37:50.307Z,74.48
2018-08-31T05:38:30.948Z,72.65
2018-08-31T05:39:11.422Z,73.71
2018-08-31T05:39:51.950Z,79.38
2018-08-31T05:40:32.560Z,86.51
2018-08-31T05:41:13.078Z,84.97
2018-08-31T05:41:53.626Z,82.17
2018-08-31T05:42:34.200Z,76.78
2018-08-31T05:43:15.117Z,76.98
2018-08-31T05:43:55.224Z,73.57
2018-08-31T05:44:35.920Z,78.33
2018-08-31T05:45:16.601Z,77.84
2018-08-31T05:45:57.063Z,73.38
2018-08-31T05:46:37.583Z,77.51
2018-08-31T05:47:18.941Z,78.9
2018-08-31T05:47:59.507Z,76.78
2018-08-31T05:48:40.039Z,74.96
2018-08-31T05:49:20.496Z,73.9
2018-08-31T05:50:00.975Z,80.73
2018-08-31T05:50:41.506Z,81.88
2018-08-31T05:51:22.043Z,78.23
2018-08-31T05:52:02.477Z,75.15
2018-08-31T05:52:42.953Z,80.15
2018-08-31T05:53:24.066Z,77.26
2018-08-31T05:54:04.655Z,74.19
2018-08-31T05:54:45.126Z,75.82
2018-08-31T05:55:25.636Z,74.38
2018-08-31T05:56:06.153Z,75.34
2018-08-31T05:56:46.713Z,72.94
2018-08-31T05:57:27.350Z,77.36
2018-08-31T05:58:07.897Z,80.15
2018-08-31T05:58:48.463Z,80.44
2018-08-31T05:59:28.998Z,79.1
2018-08-31T06:00:09.710Z,79.1
2018-08-31T06:00:50.181Z,76.01
2018-08-31T06:01:30.636Z,74.76
2018-08-31T06:02:11.199Z,73.32
2018-08-31T06:02:51.613Z,74.38
2018-08-31T06:03:32.404Z,80.54
2018-08-31T06:04:12.982Z,84.58
2018-08-31T06:04:53.423Z,81.12
2018-08-31T06:05:33.899Z,84.81
2018-08-31T06:06:14.400Z,85.3
2018-08-31T06:06:54.895Z,87.32
2018-08-31T06:07:35.413Z,89.43
2018-08-31T06:08:15.971Z,84.77
2018-08-31T06:08:56.414Z,82.75
2018-08-31T06:09:36.877Z,78.61
2018-08-31T06:10:17.617Z,86.35
2018-08-31T06:10:58.804Z,83.08
2018-08-31T06:11:39.784Z,77.98
2018-08-31T06:12:20.250Z,77.69
2018-08-31T06:13:00.797Z,74.61
2018-08-31T06:13:41.294Z,72.78
2018-08-31T06:14:21.795Z,80.68
2018-08-31T06:15:02.328Z,79.61
2018-08-31T06:15:42.794Z,77.5
2018-08-31T06:16:23.290Z,75.76
2018-08-31T06:17:04.381Z,74.61
2018-08-31T06:17:44.897Z,71.34
2018-08-31T06:18:25.353Z,71.91
2018-08-31T06:19:05.872Z,78.27
2018-08-31T06:19:46.468Z,82.02
2018-08-31T06:20:26.939Z,85.14
2018-08-31T06:21:07.506Z,79.81
2018-08-31T06:23:21.725Z,82.93
2018-08-31T06:24:02.240Z,78.36
2018-08-31T06:24:42.754Z,78.08
2018-08-31T06:25:23.258Z,81.29
2018-08-31T06:26:03.772Z,79.81
2018-08-31T06:26:44.259Z,85
2018-08-31T06:27:24.751Z,86.74
2018-08-31T06:28:05.245Z,82.98
2018-08-31T06:28:45.756Z,80.29
2018-08-31T06:29:26.236Z,75.19
2018-08-31T06:30:06.802Z,79.13
2018-08-31T06:30:47.290Z,78.46
2018-08-31T06:31:27.817Z,77.69
2018-08-31T06:32:08.253Z,79.33
2018-08-31T06:32:48.752Z,78.65
2018-08-31T06:33:29.279Z,74.9
2018-08-31T06:34:09.770Z,74.32
2018-08-31T06:34:50.285Z,72.97
2018-08-31T06:35:30.814Z,75.19
2018-08-31T06:36:11.322Z,73.65
2018-08-31T06:36:51.853Z,76.06
2018-08-31T06:37:32.358Z,75.38
2018-08-31T06:38:12.895Z,76.15
2018-08-31T06:38:53.405Z,78.46
2018-08-31T06:39:33.926Z,77.59
2018-08-31T06:40:14.423Z,76.92
2018-08-31T06:40:54.983Z,74.71
2018-08-31T06:41:36.384Z,73.07
2018-08-31T06:42:16.889Z,74.8
2018-08-31T06:42:57.412Z,72.97
2018-08-31T06:43:37.919Z,70.95
2018-08-31T06:44:18.456Z,71.14
2018-08-31T06:44:58.973Z,70.56
2018-08-31T06:45:39.500Z,69.99
2018-08-31T06:46:20.033Z,72.49
2018-08-31T06:47:00.542Z,76.34
2018-08-31T06:47:41.212Z,76.63
2018-08-31T06:49:59.626Z,74.61
2018-08-31T06:50:40.161Z,76.06
2018-08-31T06:51:20.730Z,78.75
2018-08-31T06:52:01.215Z,75.38
2018-08-31T06:52:42.061Z,73.46
2018-08-31T06:53:22.651Z,73.74
2018-08-31T06:54:03.079Z,74.61
2018-08-31T06:54:43.641Z,76.82
2018-08-31T06:55:24.181Z,81.2
2018-08-31T06:56:04.689Z,84.66
2018-08-31T06:56:45.221Z,87.26
2018-08-31T06:57:27.384Z,87.03
2018-08-31T06:58:07.891Z,79.9
2018-08-31T06:58:48.407Z,73.94
2018-08-31T06:59:28.914Z,72.78
2018-08-31T07:00:09.657Z,74.03
2018-08-31T07:00:50.332Z,74.45
2018-08-31T07:01:30.822Z,82.83
2018-08-31T07:02:11.297Z,84.38
2018-08-31T07:02:51.825Z,84.28
2018-08-31T07:03:32.321Z,83.41
2018-08-31T07:04:12.852Z,78.69
2018-08-31T07:04:53.362Z,75.42
2018-08-31T07:05:33.856Z,78.98
2018-08-31T07:06:14.374Z,85.53
2018-08-31T07:06:54.879Z,85.14
2018-08-31T07:07:35.381Z,80.62
2018-08-31T07:08:15.911Z,80.76
2018-08-31T07:08:56.428Z,81.33
2018-08-31T07:09:36.990Z,82.29
2018-08-31T07:10:17.471Z,86.73
2018-08-31T07:10:58.196Z,89.72
2018-08-31T07:11:38.680Z,82.83
2018-08-31T07:12:19.317Z,84.18
2018-08-31T07:12:59.805Z,79.41
2018-08-31T07:13:40.335Z,77.86
2018-08-31T07:14:20.756Z,77
2018-08-31T07:15:01.224Z,74.78
2018-08-31T07:15:41.723Z,78.73
2018-08-31T07:16:22.230Z,75.45
2018-08-31T07:17:02.779Z,72.91
2018-08-31T07:17:43.224Z,71.22
2018-08-31T07:18:23.740Z,75.36
2018-08-31T07:19:04.201Z,84.42
2018-08-31T07:19:44.767Z,84.65
2018-08-31T07:20:25.168Z,81.91
2018-08-31T07:21:05.661Z,84.52
2018-08-31T07:21:46.212Z,84.03
2018-08-31T07:22:26.680Z,82.29
2018-08-31T07:23:07.205Z,77.48
2018-08-31T07:23:47.718Z,74.01
2018-08-31T07:24:28.259Z,76.03
2018-08-31T07:25:08.741Z,77
2018-08-31T07:25:49.312Z,81.62
2018-08-31T07:26:29.835Z,76.51
2018-08-31T07:27:10.227Z,74.1
2018-08-31T07:27:50.698Z,76.71
2018-08-31T07:28:31.222Z,79.89
2018-08-31T07:29:11.727Z,78.83
2018-08-31T07:29:52.184Z,75.36
2018-08-31T07:30:32.717Z,72.53
2018-08-31T07:31:13.205Z,75.36
2018-08-31T07:31:53.659Z,78.31
2018-08-31T07:32:34.396Z,76.38
2018-08-31T07:33:14.787Z,74.74
2018-08-31T07:33:55.324Z,75.23
2018-08-31T07:34:35.921Z,76.57
2018-08-31T07:35:16.408Z,74.55
2018-08-31T07:35:56.857Z,75.9
2018-08-31T07:36:37.396Z,76.67
2018-08-31T07:37:17.893Z,73.39
2018-08-31T07:37:58.390Z,77.15
2018-08-31T07:38:38.832Z,77.53
2018-08-31T07:39:19.629Z,74.65
2018-08-31T07:40:00.165Z,75.42
2018-08-31T07:40:40.902Z,73.3
2018-08-31T07:41:21.221Z,70.98
2018-08-31T07:42:01.706Z,74.07
2018-08-31T07:42:42.216Z,73.1
2018-08-31T07:43:22.750Z,75.57
2018-08-31T07:44:03.254Z,77.31
2018-08-31T07:44:43.821Z,74.22
2018-08-31T07:45:24.357Z,77.4
2018-08-31T07:46:04.886Z,74.41
2018-08-31T07:46:45.406Z,73.46
2018-08-31T07:47:25.930Z,72.88
2018-08-31T07:48:06.497Z,76.86
2018-08-31T07:48:47.041Z,83.7
2018-08-31T07:49:27.623Z,84.47
2018-08-31T07:50:08.072Z,82.7
2018-08-31T07:50:48.591Z,77.11
2018-08-31T07:51:29.124Z,75.9
2018-08-31T07:52:09.637Z,78.98
2018-08-31T07:52:50.163Z,74.84
2018-08-31T07:53:30.688Z,75.61
2018-08-31T07:54:11.225Z,85.14
2018-08-31T07:54:51.742Z,86.98
2018-08-31T07:55:32.255Z,85.34
2018-08-31T07:56:12.769Z,77.73
2018-08-31T07:56:53.286Z,78.73
2018-08-31T07:57:33.819Z,74.55
2018-08-31T07:58:14.353Z,78.44
2018-08-31T07:58:54.873Z,76.42
2018-08-31T07:59:35.398Z,77.28
2018-08-31T08:00:15.944Z,81.04
2018-08-31T08:00:56.484Z,85.19
2018-08-31T08:01:37.000Z,85.57
2018-08-31T08:02:17.519Z,85.57
2018-08-31T08:02:58.077Z,85.38
2018-08-31T08:03:38.628Z,79.6
2018-08-31T08:04:19.173Z,79.5
2018-08-31T08:04:59.692Z,77.58
2018-08-31T08:05:40.212Z,74.33
2018-08-31T08:06:20.681Z,74.14
2018-08-31T08:07:01.233Z,79.06
2018-08-31T08:07:41.744Z,82.62
2018-08-31T08:08:22.277Z,83.98
2018-08-31T08:09:02.801Z,78.44
2018-08-31T08:09:43.503Z,75.88
2018-08-31T08:10:23.828Z,73.27
2018-08-31T08:11:04.351Z,71.6
2018-08-31T08:11:45.215Z,71.73
2018-08-31T08:12:25.728Z,71.73
2018-08-31T08:13:06.253Z,71.73
2018-08-31T08:13:46.774Z,74.72
2018-08-31T08:14:27.307Z,73.47
2018-08-31T08:15:07.865Z,72.83
2018-08-31T08:15:48.412Z,70.9
2018-08-31T08:16:28.934Z,69.45
2018-08-31T08:17:09.438Z,72.12
2018-08-31T08:17:50.017Z,69.23
2018-08-31T08:18:30.541Z,72.21
2018-08-31T08:19:11.090Z,74.62
2018-08-31T08:19:51.605Z,72.89
2018-08-31T08:20:32.121Z,71.73
2018-08-31T08:21:12.631Z,71.77
2018-08-31T08:21:53.125Z,72.25
2018-08-31T08:22:33.661Z,72.92
2018-08-31T08:23:14.179Z,76.2
2018-08-31T08:23:54.726Z,78.29
2018-08-31T08:24:35.252Z,76.45
2018-08-31T08:25:15.773Z,74.91
2018-08-31T08:25:56.290Z,75.62
2018-08-31T08:26:36.802Z,77.07
2018-08-31T08:27:17.318Z,77.26
2018-08-31T08:27:57.836Z,74.52
2018-08-31T08:28:38.378Z,70.57
2018-08-31T08:29:18.899Z,70.03
2018-08-31T08:29:59.418Z,74.66
2018-08-31T08:30:39.932Z,76.45
2018-08-31T08:31:20.468Z,74.91
2018-08-31T08:32:00.969Z,75.24
2018-08-31T08:32:41.502Z,78.71
2018-08-31T08:33:22.035Z,74.85
2018-08-31T08:34:02.588Z,74.37
2018-08-31T08:34:43.098Z,69.93
2018-08-31T08:35:23.618Z,69.74
2018-08-31T08:36:04.192Z,72.15
2018-08-31T08:36:44.670Z,71.28
2018-08-31T08:37:25.317Z,71.09
2018-08-31T08:38:05.880Z,72.34
2018-08-31T08:38:46.573Z,78.61
2018-08-31T08:39:27.025Z,79.39
2018-08-31T08:40:07.570Z,79
2018-08-31T08:40:48.150Z,81.99
2018-08-31T08:41:28.659Z,73.21
2018-08-31T08:42:09.206Z,69.84
2018-08-31T08:42:49.702Z,79.91
2018-08-31T08:43:30.227Z,84.93
2018-08-31T08:44:10.750Z,87.05
2018-08-31T08:44:51.544Z,85.41
2018-08-31T08:45:32.081Z,82.32
2018-08-31T08:46:12.610Z,82.71
2018-08-31T08:46:53.152Z,80.3
2018-08-31T08:47:33.668Z,75.57
2018-08-31T08:48:14.317Z,74.31
2018-08-31T08:48:54.730Z,74.21
2018-08-31T08:49:35.268Z,73.63
2018-08-31T08:50:15.817Z,73.54
2018-08-31T08:50:56.326Z,74.79
2018-08-31T08:51:36.838Z,73.63
2018-08-31T08:52:17.365Z,69.58
2018-08-31T08:52:57.879Z,73.44